Piercetown, Arkansas
Current Conditions -  °F | °C
As of 3:53 PM on Thursday 27 Nov 2014 (Local Time) from KHRO Reporting Station
Clear Clear  
Wind Chill: 43°   Ceiling: Unl
Heat Index: 45°   Visibility: 10mi
Dew Point: 20°   Wind: 5mph
Humidity: 37%   Direction: 10°N
Pressure: 30.43"   Gusts: NA
Location:  36.0047°N, 93.218°W
Report Text: KHRO 272153Z AUTO 01004KT 10SM CLR 07/M07 A3043 RMK AO2 SLP310 T00721067
Loading
Personal Weather Stations






























Interactive Weather Map New forecast layout! Learn more

10-Day Weather Forecast

Advertisements
Track Severe Weather on mobile